Flight Information

DEPARTURE
MOJAVE, CA
Elevation:
2801
Runways:
12/30 - 12503x200 - ASPH-E
8/26 - 7049x100 - ASPH-G
4/22 - 4747x60 - ASPH-E
Ground:
123.9
Tower:
127.6
DESTINATION
,
Elevation:
TPA:
1000 (est.)


6762.8 NM73° True-14° Var58° HDG

Flight Plan:
(click to file on line)

1. Type
2. Aircraft Identification
3. Aircraft Type / Special Equipment
4. True Airspeed
kts
5. Departure Airport
(ICAO code)
6. Arriving Airport
(ICAO code)
7. Cruising Altitude
ft
8. Alternate Airport
(ICAO code)
9. Route of Flight
10. Remarks


00:00:00 Departure ATIS: Destination ATIS:

Clearance Limit:
Route:
Altitude: Expect in minutes
Frequency:
Transponder: (7500 Hijack / 7600 Lost Comms / 7700 Emergency)


KMHV 051540Z AUTO 30012G18KT 10SM 29/M01 A3002 RMK A01
Time: 2020-07-05T15:40:00Z
1593965543
Winds: 300 @ 12 kts
Gusting:18 kts
Visibility: 10.0 sm
Clouds (AGL):
Temperature: 29.0 C
Dew Point: -1.0 C
Pressure: 30.02067 in Hgbr


Notes:

Data extracted from FAA Digital Chart Supplement. Effective: 0901Z Thursday, May 21, 2020 to 0901Z Thursday, Jul 16, 2020
Current ATIS data is provided courtisy of PilotEdge.